createdAt,value
2017-07-08T00:01:46.736Z,58.50
2017-07-08T00:04:15.214Z,59.50
2017-07-08T00:06:42.700Z,58.90
2017-07-08T00:09:10.189Z,59.00
2017-07-08T00:11:37.665Z,59.70
2017-07-08T00:14:15.760Z,59.30
2017-07-08T00:16:44.016Z,59.60
2017-07-08T00:19:15.134Z,59.60
2017-07-08T00:21:42.947Z,59.70
2017-07-08T00:24:10.421Z,59.80
2017-07-08T00:26:37.907Z,59.90
2017-07-08T00:29:16.159Z,60.00
2017-07-08T00:31:43.630Z,60.00
2017-07-08T00:34:11.911Z,59.90
2017-07-08T00:36:40.494Z,59.80
2017-07-08T00:39:08.050Z,59.80
2017-07-08T00:41:36.293Z,60.30
2017-07-08T00:44:04.095Z,60.30
2017-07-08T00:46:32.380Z,60.80
2017-07-08T00:49:06.690Z,60.80
2017-07-08T00:51:34.170Z,61.10
2017-07-08T00:54:01.710Z,61.60
2017-07-08T00:56:35.067Z,62.10
2017-07-08T00:59:02.551Z,62.90
2017-07-08T01:01:37.563Z,63.60
2017-07-08T01:04:05.037Z,63.50
2017-07-08T01:06:33.331Z,63.20
2017-07-08T01:09:07.267Z,63.70
2017-07-08T01:11:34.738Z,63.70
2017-07-08T01:14:06.140Z,63.80
2017-07-08T01:16:33.618Z,63.50
2017-07-08T01:19:07.737Z,63.80
2017-07-08T01:21:35.316Z,63.80
2017-07-08T01:24:05.809Z,64.40
2017-07-08T01:26:33.665Z,64.30
2017-07-08T01:29:01.923Z,64.10
2017-07-08T01:31:29.398Z,64.10
2017-07-08T01:33:56.888Z,64.40
2017-07-08T01:36:24.379Z,65.30
2017-07-08T01:38:52.148Z,64.70
2017-07-08T01:41:25.410Z,65.00
2017-07-08T01:43:56.519Z,65.00
2017-07-08T01:46:25.721Z,65.30
2017-07-08T01:48:54.001Z,65.70
2017-07-08T01:51:22.287Z,66.20
2017-07-08T01:53:49.758Z,66.00
2017-07-08T01:56:25.194Z,66.50
2017-07-08T01:58:52.744Z,66.80
2017-07-08T02:01:20.308Z,67.00
2017-07-08T02:03:55.438Z,67.00
2017-07-08T02:06:23.705Z,67.50
2017-07-08T02:08:52.294Z,67.30
2017-07-08T02:11:19.770Z,67.20
2017-07-08T02:13:47.312Z,67.00
2017-07-08T02:16:25.431Z,66.90
2017-07-08T02:18:52.906Z,66.80
2017-07-08T02:21:26.585Z,67.10
2017-07-08T02:23:54.866Z,67.00
2017-07-08T02:26:25.794Z,67.00
2017-07-08T02:28:55.616Z,67.40
2017-07-08T02:31:24.803Z,67.40
2017-07-08T02:33:53.089Z,67.50
2017-07-08T02:36:27.019Z,67.50
2017-07-08T02:38:54.504Z,67.40
2017-07-08T02:41:22.261Z,67.60
2017-07-08T02:43:49.752Z,67.80
2017-07-08T02:46:17.235Z,67.80
2017-07-08T02:48:55.549Z,67.80
2017-07-08T02:51:26.335Z,67.70
2017-07-08T02:53:55.380Z,68.00
2017-07-08T02:56:22.927Z,68.10
2017-07-08T02:58:57.219Z,68.30
2017-07-08T03:01:25.653Z,68.10
2017-07-08T03:03:56.154Z,68.50
2017-07-08T03:06:24.424Z,68.70
2017-07-08T03:08:52.676Z,68.50
2017-07-08T03:11:25.191Z,68.70
2017-07-08T03:13:53.440Z,68.90
2017-07-08T03:16:20.919Z,68.80
2017-07-08T03:18:55.325Z,68.90
2017-07-08T03:21:22.803Z,69.00
2017-07-08T03:23:51.685Z,69.10
2017-07-08T03:26:19.926Z,69.10
2017-07-08T03:28:47.401Z,69.00
2017-07-08T03:31:15.193Z,69.10
2017-07-08T03:33:42.691Z,69.10
2017-07-08T03:36:16.408Z,68.90
2017-07-08T03:38:44.811Z,69.20
2017-07-08T03:41:15.441Z,69.50
2017-07-08T03:43:43.230Z,69.70
2017-07-08T03:46:10.795Z,69.80
2017-07-08T03:48:39.043Z,70.20
2017-07-08T03:51:06.827Z,70.10
2017-07-08T03:53:35.304Z,70.20
2017-07-08T03:56:03.590Z,70.60
2017-07-08T03:58:31.073Z,70.40
2017-07-08T04:01:05.064Z,70.50
2017-07-08T04:03:36.203Z,70.60
2017-07-08T04:06:05.455Z,71.00
2017-07-08T04:08:36.346Z,70.90
2017-07-08T04:11:03.832Z,71.10
2017-07-08T04:13:31.318Z,71.10
2017-07-08T04:16:04.777Z,71.20
2017-07-08T04:18:32.255Z,71.10
2017-07-08T04:21:00.084Z,71.10
2017-07-08T04:23:27.574Z,71.00
2017-07-08T04:25:55.045Z,71.20
2017-07-08T04:28:22.536Z,71.20
2017-07-08T04:30:50.797Z,71.40
2017-07-08T04:33:18.585Z,71.20
2017-07-08T04:35:46.841Z,71.30
2017-07-08T04:38:15.334Z,71.10
2017-07-08T04:40:46.056Z,71.00
2017-07-08T04:43:16.483Z,70.90
2017-07-08T04:45:44.279Z,70.90
2017-07-08T04:48:15.531Z,70.60
2017-07-08T04:50:46.357Z,70.50
2017-07-08T04:53:13.939Z,70.20
2017-07-08T04:55:41.414Z,69.70
2017-07-08T04:58:08.956Z,69.60
2017-07-08T05:00:44.895Z,69.90
2017-07-08T05:03:12.773Z,69.60
2017-07-08T05:05:46.240Z,69.70
2017-07-08T05:08:13.996Z,69.80
2017-07-08T05:10:41.486Z,69.90
2017-07-08T05:13:09.737Z,69.60
2017-07-08T05:15:45.247Z,69.50
2017-07-08T05:18:16.088Z,69.60
2017-07-08T05:20:46.883Z,69.40
2017-07-08T05:23:14.357Z,69.30
2017-07-08T05:25:41.861Z,68.60
2017-07-08T05:28:09.348Z,68.60
2017-07-08T05:30:37.593Z,67.70
2017-07-08T05:33:05.384Z,67.60
2017-07-08T05:35:32.872Z,67.10
2017-07-08T05:38:06.446Z,66.70
2017-07-08T05:40:34.902Z,66.70
2017-07-08T05:43:05.539Z,66.50
2017-07-08T05:45:33.039Z,66.20
2017-07-08T05:48:00.540Z,66.20
2017-07-08T05:50:28.342Z,66.00
2017-07-08T05:52:55.907Z,65.60
2017-07-08T05:55:24.171Z,65.40
2017-07-08T05:57:51.663Z,65.40
2017-07-08T06:00:19.144Z,66.00
2017-07-08T06:02:46.968Z,64.40
2017-07-08T06:05:14.452Z,64.00
2017-07-08T06:07:41.949Z,63.60
2017-07-08T06:10:09.745Z,63.30
2017-07-08T06:12:37.257Z,62.70
2017-07-08T06:15:04.735Z,62.30
2017-07-08T06:17:35.155Z,62.20
2017-07-08T06:20:05.683Z,62.10
2017-07-08T06:22:36.458Z,61.90
2017-07-08T06:25:03.971Z,61.50
2017-07-08T06:27:31.486Z,61.20
2017-07-08T06:30:05.535Z,60.70
2017-07-08T06:32:33.021Z,60.40
2017-07-08T06:35:06.970Z,59.60
2017-07-08T06:37:34.471Z,59.50
2017-07-08T06:40:01.947Z,59.20
2017-07-08T06:42:35.371Z,59.10
2017-07-08T06:45:02.861Z,59.00
2017-07-08T06:47:30.689Z,58.90
2017-07-08T06:50:05.163Z,58.70
2017-07-08T06:52:32.975Z,58.70
2017-07-08T06:55:01.217Z,58.40
2017-07-08T06:57:35.332Z,58.90
2017-07-08T07:00:02.819Z,57.90
2017-07-08T07:02:31.075Z,57.40
2017-07-08T07:05:04.845Z,57.30
2017-07-08T07:07:35.685Z,57.10
2017-07-08T07:10:06.594Z,56.80
2017-07-08T07:12:34.079Z,56.60
2017-07-08T07:15:01.567Z,57.00
2017-07-08T07:17:29.374Z,56.60
2017-07-08T07:20:05.307Z,56.40
2017-07-08T07:22:33.097Z,56.10
2017-07-08T07:25:06.501Z,55.80
2017-07-08T07:27:34.291Z,55.80
2017-07-08T07:30:01.771Z,55.60
2017-07-08T07:32:35.459Z,55.50
2017-07-08T07:35:06.090Z,55.30
2017-07-08T07:37:37.074Z,55.20
2017-07-08T07:40:05.321Z,55.30
2017-07-08T07:42:32.911Z,55.20
2017-07-08T07:45:07.499Z,54.40
2017-07-08T07:47:44.939Z,54.40
2017-07-08T07:50:12.698Z,53.90
2017-07-08T07:52:40.943Z,53.40
2017-07-08T07:55:08.437Z,53.30
2017-07-08T07:57:35.940Z,53.10
2017-07-08T08:00:03.423Z,53.00
2017-07-08T08:02:31.219Z,52.30
2017-07-08T08:04:58.703Z,52.50
2017-07-08T08:07:34.831Z,52.00
2017-07-08T08:10:06.453Z,51.30
2017-07-08T08:12:35.286Z,51.20
2017-07-08T08:15:02.762Z,50.30
2017-07-08T08:17:37.111Z,50.20
2017-07-08T08:20:04.595Z,50.30
2017-07-08T08:22:32.169Z,49.10
2017-07-08T08:25:00.751Z,48.20
2017-07-08T08:27:29.003Z,47.90
2017-07-08T08:29:56.586Z,47.80
2017-07-08T08:32:25.183Z,47.40
2017-07-08T08:34:52.682Z,47.40
2017-07-08T08:37:20.152Z,47.50
2017-07-08T08:39:47.656Z,47.10
2017-07-08T08:42:15.140Z,45.60
2017-07-08T08:44:42.982Z,46.00
2017-07-08T08:47:10.461Z,46.40
2017-07-08T08:49:45.664Z,45.80
2017-07-08T08:52:13.148Z,45.80
2017-07-08T08:54:40.639Z,44.90
2017-07-08T08:57:08.126Z,43.30
2017-07-08T08:59:35.602Z,42.80
2017-07-08T09:02:05.218Z,42.00
2017-07-08T09:04:32.711Z,42.30
2017-07-08T09:07:00.258Z,41.90
2017-07-08T09:09:28.108Z,42.60
2017-07-08T09:11:55.601Z,42.60
2017-07-08T09:14:26.739Z,43.20
2017-07-08T09:16:55.590Z,42.40
2017-07-08T09:19:26.790Z,42.30
2017-07-08T09:21:54.273Z,42.20
2017-07-08T09:24:22.048Z,42.60
2017-07-08T09:26:49.538Z,42.40
2017-07-08T09:29:24.995Z,42.30
2017-07-08T09:31:52.506Z,42.00
2017-07-08T09:34:20.758Z,41.40
2017-07-08T09:36:48.560Z,41.40
2017-07-08T09:39:16.040Z,41.30
2017-07-08T09:41:45.240Z,41.80
2017-07-08T09:44:15.857Z,41.40
2017-07-08T09:46:46.414Z,41.30
2017-07-08T09:49:14.277Z,41.30
2017-07-08T09:51:41.761Z,40.90
2017-07-08T09:54:16.096Z,40.70
2017-07-08T09:56:43.578Z,40.20
2017-07-08T09:59:17.347Z,39.20
2017-07-08T10:01:44.825Z,38.70
2017-07-08T10:04:15.424Z,39.20
2017-07-08T10:06:45.957Z,39.70
2017-07-08T10:09:13.455Z,39.00
2017-07-08T10:11:41.251Z,38.20
2017-07-08T10:14:15.438Z,37.40
2017-07-08T10:16:43.203Z,36.10
2017-07-08T10:19:16.633Z,35.80
2017-07-08T10:21:45.904Z,36.30
2017-07-08T10:24:14.143Z,35.90
2017-07-08T10:26:44.906Z,35.80
2017-07-08T10:29:13.175Z,34.10
2017-07-08T10:31:46.908Z,34.10
2017-07-08T10:34:14.763Z,32.90
2017-07-08T10:36:42.274Z,32.70
2017-07-08T10:39:09.770Z,31.60
2017-07-08T10:41:38.047Z,30.60
2017-07-08T10:44:05.525Z,30.40
2017-07-08T10:46:33.296Z,29.40
2017-07-08T10:49:00.772Z,28.80
2017-07-08T10:51:28.255Z,27.40
2017-07-08T10:54:06.291Z,27.60
2017-07-08T10:56:34.559Z,25.90
2017-07-08T10:59:02.344Z,25.80
2017-07-08T11:01:30.588Z,25.20
2017-07-08T11:03:58.075Z,25.20
2017-07-08T11:06:25.583Z,24.80
2017-07-08T11:08:54.890Z,24.90
2017-07-08T11:11:22.653Z,25.50
2017-07-08T11:13:55.983Z,25.00
2017-07-08T11:16:26.119Z,24.20
2017-07-08T11:18:53.615Z,24.10
2017-07-08T11:21:21.111Z,25.10
2017-07-08T11:23:55.381Z,25.10
2017-07-08T11:26:22.869Z,26.10
2017-07-08T11:28:50.683Z,26.60
2017-07-08T11:31:18.170Z,26.80
2017-07-08T11:33:45.660Z,25.90
2017-07-08T11:36:16.682Z,25.90
2017-07-08T11:38:44.176Z,26.30
2017-07-08T11:41:11.923Z,25.80
2017-07-08T11:43:39.398Z,25.80
2017-07-08T11:46:07.637Z,25.60
2017-07-08T11:48:35.141Z,25.50
2017-07-08T11:51:03.396Z,25.10
2017-07-08T11:53:31.181Z,25.10
2017-07-08T11:55:58.663Z,25.20
2017-07-08T11:58:26.145Z,24.80
2017-07-08T12:00:53.973Z,24.60
2017-07-08T12:03:22.247Z,23.00
2017-07-08T12:05:49.741Z,22.90
2017-07-08T12:08:17.491Z,23.10
2017-07-08T12:10:44.979Z,22.10
2017-07-08T12:13:15.744Z,22.20
2017-07-08T12:15:43.243Z,22.80
2017-07-08T12:18:16.483Z,23.50
2017-07-08T12:20:45.609Z,23.30
2017-07-08T12:23:13.849Z,22.50
2017-07-08T12:25:41.331Z,22.50
2017-07-08T12:28:14.874Z,22.30
2017-07-08T12:30:42.357Z,21.80
2017-07-08T12:33:10.167Z,21.50
2017-07-08T12:35:37.665Z,22.10
2017-07-08T12:38:15.619Z,21.80
2017-07-08T12:40:43.879Z,20.90
2017-07-08T12:43:14.894Z,20.80
2017-07-08T12:45:45.886Z,20.80
2017-07-08T12:48:13.402Z,21.10
2017-07-08T12:50:40.883Z,21.20
2017-07-08T12:53:08.779Z,21.80
2017-07-08T12:55:36.268Z,21.10
2017-07-08T12:58:03.756Z,21.50
2017-07-08T13:00:37.325Z,21.80
2017-07-08T13:03:04.912Z,21.30
2017-07-08T13:05:32.394Z,20.60
2017-07-08T13:08:06.986Z,21.50
2017-07-08T13:10:34.462Z,21.40
2017-07-08T13:13:01.933Z,20.90
2017-07-08T13:15:36.559Z,20.90
2017-07-08T13:18:04.121Z,20.80
2017-07-08T13:20:32.719Z,21.00
2017-07-08T13:23:00.210Z,21.00
2017-07-08T13:25:27.739Z,21.40
2017-07-08T13:28:05.369Z,21.60
2017-07-08T13:30:36.183Z,21.40
2017-07-08T13:33:07.102Z,21.70
2017-07-08T13:35:45.202Z,22.20
2017-07-08T13:38:13.797Z,21.90
2017-07-08T13:40:41.358Z,21.90
2017-07-08T13:43:08.929Z,22.10
2017-07-08T13:45:36.430Z,21.90
2017-07-08T13:48:03.919Z,20.90
2017-07-08T13:50:31.732Z,20.60
2017-07-08T13:53:05.505Z,20.80
2017-07-08T13:55:33.274Z,21.30
2017-07-08T13:58:00.797Z,21.00
2017-07-08T14:00:28.270Z,20.80
2017-07-08T14:02:55.779Z,19.70
2017-07-08T14:05:23.272Z,20.20
2017-07-08T14:07:51.059Z,20.10
2017-07-08T14:10:25.805Z,21.10
2017-07-08T14:12:56.942Z,21.00
2017-07-08T14:15:24.413Z,20.80
2017-07-08T14:17:51.895Z,20.20
2017-07-08T14:20:19.384Z,20.00
2017-07-08T14:22:46.884Z,20.10
2017-07-08T14:25:14.736Z,20.70
2017-07-08T14:27:45.806Z,21.00
2017-07-08T14:30:13.367Z,20.90
2017-07-08T14:32:46.887Z,21.40
2017-07-08T14:35:15.388Z,21.90
2017-07-08T14:37:45.907Z,22.30
2017-07-08T14:40:13.678Z,21.70
2017-07-08T14:42:41.154Z,22.50
2017-07-08T14:45:08.642Z,23.10
2017-07-08T14:47:46.567Z,22.50
2017-07-08T14:50:14.052Z,22.20
2017-07-08T14:52:44.793Z,22.80
2017-07-08T14:55:12.553Z,22.50
2017-07-08T14:57:40.017Z,24.00
2017-07-08T15:00:14.788Z,23.70
2017-07-08T15:02:45.290Z,24.40
2017-07-08T15:05:16.240Z,24.00
2017-07-08T15:07:45.475Z,24.50
2017-07-08T15:10:16.347Z,24.50
2017-07-08T15:12:43.822Z,24.00
2017-07-08T15:15:15.147Z,23.50
2017-07-08T15:17:45.762Z,24.90
2017-07-08T15:20:16.310Z,24.60
2017-07-08T15:22:45.126Z,23.60
2017-07-08T15:25:13.395Z,24.20
2017-07-08T15:27:40.878Z,24.20
2017-07-08T15:30:08.362Z,23.60
2017-07-08T15:32:35.833Z,24.30
2017-07-08T15:35:03.639Z,25.10
2017-07-08T15:37:31.895Z,25.30
2017-07-08T15:39:59.385Z,25.20
2017-07-08T15:42:34.850Z,25.00
2017-07-08T15:45:02.338Z,24.60
2017-07-08T15:47:36.485Z,25.10
2017-07-08T15:50:04.044Z,25.10
2017-07-08T15:52:32.286Z,25.60
2017-07-08T15:55:00.108Z,25.10
2017-07-08T15:57:34.928Z,25.00
2017-07-08T16:00:02.795Z,24.80
2017-07-08T16:02:37.335Z,25.20
2017-07-08T16:05:05.188Z,25.20
2017-07-08T16:07:33.434Z,25.80
2017-07-08T16:10:00.919Z,25.70
2017-07-08T16:12:29.170Z,26.60
2017-07-08T16:14:56.642Z,26.50
2017-07-08T16:17:24.413Z,26.60
2017-07-08T16:19:51.885Z,25.50
2017-07-08T16:22:19.361Z,26.20
2017-07-08T16:24:55.395Z,26.20
2017-07-08T16:27:26.007Z,26.90
2017-07-08T16:29:56.978Z,26.70
2017-07-08T16:32:25.314Z,26.70
2017-07-08T16:34:56.017Z,26.80
2017-07-08T16:37:23.777Z,27.40
2017-07-08T16:39:55.134Z,27.10
2017-07-08T16:42:26.047Z,27.40
2017-07-08T16:44:53.532Z,26.80
2017-07-08T16:47:26.944Z,26.90
2017-07-08T16:49:54.436Z,26.80
2017-07-08T16:52:26.451Z,28.10
2017-07-08T16:54:53.954Z,28.00
2017-07-08T16:57:25.679Z,28.80
2017-07-08T16:59:56.586Z,28.70
2017-07-08T17:02:24.074Z,29.00
2017-07-08T17:04:51.582Z,28.80
2017-07-08T17:07:25.016Z,29.10
2017-07-08T17:09:52.506Z,29.40
2017-07-08T17:12:20.004Z,28.80
2017-07-08T17:14:47.511Z,29.00
2017-07-08T17:17:25.371Z,29.50
2017-07-08T17:19:53.134Z,29.40
2017-07-08T17:22:20.613Z,29.20
2017-07-08T17:24:48.098Z,29.60
2017-07-08T17:27:26.133Z,29.90
2017-07-08T17:29:55.616Z,29.60
2017-07-08T17:32:26.583Z,29.50
2017-07-08T17:34:54.962Z,29.70
2017-07-08T17:37:23.213Z,29.70
2017-07-08T17:39:56.906Z,29.60
2017-07-08T17:42:24.372Z,29.80
2017-07-08T17:44:55.657Z,29.70
2017-07-08T17:47:25.013Z,29.70
2017-07-08T17:49:52.533Z,29.70
2017-07-08T17:52:20.309Z,29.80
2017-07-08T17:54:54.605Z,29.90
2017-07-08T17:57:22.387Z,30.00
2017-07-08T17:59:55.924Z,29.80
2017-07-08T18:02:27.103Z,29.90
2017-07-08T18:04:54.611Z,30.40
2017-07-08T18:07:22.102Z,30.90
2017-07-08T18:09:50.377Z,30.60
2017-07-08T18:12:18.630Z,30.70
2017-07-08T18:14:54.891Z,30.70
2017-07-08T18:17:22.383Z,31.00
2017-07-08T18:19:57.192Z,32.20
2017-07-08T18:22:24.686Z,32.10
2017-07-08T18:24:55.360Z,32.70
2017-07-08T18:27:22.848Z,33.10
2017-07-08T18:29:51.101Z,34.70
2017-07-08T18:32:25.243Z,33.90
2017-07-08T18:34:53.487Z,35.00
2017-07-08T18:37:20.966Z,34.40
2017-07-08T18:39:54.942Z,34.70
2017-07-08T18:42:22.447Z,34.80
2017-07-08T18:44:51.033Z,35.50
2017-07-08T18:47:24.851Z,35.50
2017-07-08T18:49:56.009Z,35.70
2017-07-08T18:52:23.501Z,35.90
2017-07-08T18:54:50.993Z,36.30
2017-07-08T18:57:25.431Z,36.50
2017-07-08T18:59:55.924Z,36.60
2017-07-08T19:02:26.798Z,36.60
2017-07-08T19:04:54.989Z,36.60
2017-07-08T19:07:25.710Z,36.80
2017-07-08T19:09:53.209Z,37.00
2017-07-08T19:12:20.705Z,37.10
2017-07-08T19:14:55.331Z,37.90
2017-07-08T19:17:24.927Z,37.70
2017-07-08T19:19:52.402Z,37.50
2017-07-08T19:22:26.656Z,38.10
2017-07-08T19:24:54.152Z,38.00
2017-07-08T19:27:21.968Z,38.40
2017-07-08T19:29:49.458Z,38.50
2017-07-08T19:32:25.255Z,38.80
2017-07-08T19:34:53.523Z,39.30
2017-07-08T19:37:21.013Z,39.20
2017-07-08T19:39:48.863Z,39.50
2017-07-08T19:42:16.346Z,39.70
2017-07-08T19:44:45.471Z,40.00
2017-07-08T19:47:13.302Z,40.00
2017-07-08T19:49:40.796Z,40.00
2017-07-08T19:52:15.257Z,40.10
2017-07-08T19:54:42.859Z,40.20
2017-07-08T19:57:10.350Z,40.30
2017-07-08T19:59:38.139Z,40.20
2017-07-08T20:02:16.501Z,40.40
2017-07-08T20:04:45.545Z,40.30
2017-07-08T20:07:13.792Z,40.50
2017-07-08T20:09:41.275Z,40.30
2017-07-08T20:12:14.900Z,40.40
2017-07-08T20:14:45.698Z,40.70
2017-07-08T20:17:13.500Z,40.80
2017-07-08T20:22:15.381Z,41.10
2017-07-08T20:24:46.519Z,41.30
2017-07-08T20:27:15.407Z,41.50
2017-07-08T20:29:43.658Z,41.90
2017-07-08T20:32:11.155Z,41.90
2017-07-08T20:34:38.647Z,42.00
2017-07-08T20:37:16.253Z,42.10
2017-07-08T20:39:44.032Z,42.30
2017-07-08T20:42:11.529Z,42.30
2017-07-08T20:44:39.005Z,42.50
2017-07-08T20:47:06.494Z,42.60
2017-07-08T20:49:33.984Z,42.70
2017-07-08T20:52:02.579Z,42.90
2017-07-08T20:54:30.053Z,42.80
2017-07-08T20:56:57.549Z,43.00
2017-07-08T20:59:35.127Z,43.30
2017-07-08T21:02:02.605Z,43.40
2017-07-08T21:04:30.093Z,43.70
2017-07-08T21:06:58.347Z,44.60
2017-07-08T21:09:36.123Z,44.50
2017-07-08T21:12:05.168Z,44.70
2017-07-08T21:14:32.650Z,44.90
2017-07-08T21:17:07.079Z,45.30
2017-07-08T21:19:35.573Z,45.40
2017-07-08T21:22:06.216Z,45.40
2017-07-08T21:24:37.111Z,45.90
2017-07-08T21:27:04.589Z,46.30
2017-07-08T21:29:35.773Z,46.50
2017-07-08T21:32:03.566Z,46.90
2017-07-08T21:34:31.050Z,47.00
2017-07-08T21:36:58.530Z,47.10
2017-07-08T21:39:36.138Z,47.20
2017-07-08T21:42:06.743Z,47.30
2017-07-08T21:44:34.222Z,47.60
2017-07-08T21:47:02.043Z,47.80
2017-07-08T21:49:35.334Z,48.00
2017-07-08T21:52:03.088Z,48.00
2017-07-08T21:54:34.824Z,47.80
2017-07-08T21:57:05.786Z,47.70
2017-07-08T21:59:33.270Z,47.70
2017-07-08T22:02:00.751Z,47.70
2017-07-08T22:04:28.238Z,47.60
2017-07-08T22:07:05.794Z,47.60
2017-07-08T22:09:33.622Z,47.70
2017-07-08T22:12:05.130Z,47.70
2017-07-08T22:14:32.959Z,47.70
2017-07-08T22:17:00.455Z,47.60
2017-07-08T22:19:27.930Z,47.70
2017-07-08T22:22:05.625Z,47.70
2017-07-08T22:24:33.093Z,47.80
2017-07-08T22:27:00.570Z,48.00
2017-07-08T22:29:35.285Z,47.90
2017-07-08T22:32:02.762Z,47.80
2017-07-08T22:34:30.256Z,47.80
2017-07-08T22:36:58.023Z,47.40
2017-07-08T22:39:25.498Z,47.10
2017-07-08T22:41:56.017Z,47.00
2017-07-08T22:44:26.898Z,47.10
2017-07-08T22:47:04.779Z,47.40
2017-07-08T22:49:35.755Z,47.30
2017-07-08T22:52:05.108Z,47.30
2017-07-08T22:54:36.080Z,47.80
2017-07-08T22:57:05.363Z,47.90
2017-07-08T22:59:36.336Z,48.40
2017-07-08T23:02:05.618Z,48.40
2017-07-08T23:04:33.867Z,48.10
2017-07-08T23:07:01.667Z,47.80
2017-07-08T23:09:29.911Z,48.10
2017-07-08T23:11:57.390Z,48.00
2017-07-08T23:14:25.173Z,48.40
2017-07-08T23:16:56.143Z,48.50
2017-07-08T23:19:23.622Z,48.80
2017-07-08T23:21:51.109Z,49.00
2017-07-08T23:24:19.358Z,49.00
2017-07-08T23:26:55.126Z,48.90
2017-07-08T23:29:22.615Z,49.00
2017-07-08T23:31:50.116Z,49.20
2017-07-08T23:34:17.917Z,49.30
2017-07-08T23:36:46.179Z,49.30
2017-07-08T23:39:13.663Z,49.20
2017-07-08T23:41:46.151Z,49.40
2017-07-08T23:44:15.394Z,49.40
2017-07-08T23:46:42.875Z,49.50
2017-07-08T23:49:16.236Z,49.70
2017-07-08T23:51:45.038Z,49.90
2017-07-08T23:54:12.802Z,50.10
2017-07-08T23:56:46.054Z,50.30
2017-07-08T23:59:17.099Z,50.50
